Accueil
METAR-TAF:

METAR-TAF

Aéroports :

Aéroport international de Larnaca

Larnaca, Chypre

latitude: 34-53N, longitude: 033-38E, altitude: 2 m

Observation

Le bulletin a été fait il y a 24 minutes, à 21:00 UTC
Vent 5 kt de sud/sud-ouest
Température 27°C
Humidité 94%
Pression 1005 hPa
Visibilité: 8000 m

METAR: LCLK 192100Z 21005KT 8000 NSC 27/26 Q1005 NOSIG

Heure: 00:24 (21:24 UTC)

Prévision

Le bulletin a été fait il y a 3 heures et 54 minutes, à 17:30 UTC
Prévision valable du 19 à 18 UTC au 20 à 18 UTC
Vent 8 kt de ouest/sud-ouest
Visibilité 10 km ou plus
Quelques nuages à une hauteur de 2000 ft
Probabilité 30% :
Temporairement
du 19 à 21 UTC au 20 à 05 UTC
Visibilité: 5000 m
Nuages fragmentés à une hauteur de 700 ft
brume
Evoluant progressivement
du 20 à 08 UTC au 20 à 11 UTC
Vent 18 kt de sud/sud-ouest

TAF: LCLK 191730Z 1918/2018 24008KT 9999 FEW020 PROB30 TEMPO 1921/2005 5000 BR BKN007 BECMG 2008/2011 21018KT

Observations et prévisions météorologiques de plus de 4000 aéroports (messages METAR et TAF).

Les stations disponibles sont représentées par des disques jaunes et rouges sur la carte.

Passer la souris dessus pour voir le nom de la station.

Cliquer dessus pour voir les observations et prévisions météorologiques.

Pour changer de carte: cliquez sur les boutons verts avec une croix noire pour zoomer, sur le bouton vert avec un tiret pour effectuer un zoom arrière, ou sur les flèches vertes pour les cartes adjacentes.


METAR-TAF: